createdAt,value
2023-04-23T00:01:18.227Z,11.90
2023-04-23T00:03:50.246Z,11.90
2023-04-23T00:06:22.846Z,11.90
2023-04-23T00:08:56.286Z,11.90
2023-04-23T00:11:27.386Z,11.90
2023-04-23T00:13:58.470Z,11.90
2023-04-23T00:16:32.622Z,11.90
2023-04-23T00:19:03.330Z,11.80
2023-04-23T00:21:34.547Z,11.80
2023-04-23T00:24:05.292Z,11.80
2023-04-23T00:26:36.041Z,11.80
2023-04-23T00:29:06.882Z,11.90
2023-04-23T00:31:41.010Z,11.90
2023-04-23T00:34:11.824Z,11.90
2023-04-23T00:36:42.596Z,11.90
2023-04-23T00:39:13.302Z,12.00
2023-04-23T00:41:44.810Z,12.00
2023-04-23T00:44:16.205Z,12.00
2023-04-23T00:46:50.261Z,11.90
2023-04-23T00:49:22.318Z,12.00
2023-04-23T00:51:53.129Z,12.00
2023-04-23T00:54:24.130Z,12.10
2023-04-23T00:56:55.000Z,12.00
2023-04-23T00:59:25.878Z,12.10
2023-04-23T01:02:00.253Z,12.00
2023-04-23T01:04:33.048Z,12.00
2023-04-23T01:07:04.489Z,12.00
2023-04-23T01:09:35.272Z,12.00
2023-04-23T01:12:07.700Z,12.00
2023-04-23T01:14:40.438Z,12.10
2023-04-23T01:17:14.719Z,12.10
2023-04-23T01:19:45.814Z,12.00
2023-04-23T01:22:19.606Z,12.00
2023-04-23T01:24:51.817Z,12.00
2023-04-23T01:27:25.195Z,12.00
2023-04-23T01:29:56.010Z,12.00
2023-04-23T01:32:26.855Z,11.90
2023-04-23T01:34:58.483Z,12.00
2023-04-23T01:37:33.540Z,12.00
2023-04-23T01:40:04.095Z,12.00
2023-04-23T01:42:34.608Z,11.90
2023-04-23T01:45:08.221Z,12.00
2023-04-23T01:47:38.942Z,12.00
2023-04-23T01:50:10.767Z,11.90
2023-04-23T01:52:45.100Z,12.00
2023-04-23T01:55:15.525Z,12.00
2023-04-23T01:57:46.234Z,12.00
2023-04-23T02:00:20.861Z,12.00
2023-04-23T02:02:52.900Z,12.00
2023-04-23T02:05:24.246Z,12.00
2023-04-23T02:07:57.449Z,12.10
2023-04-23T02:10:28.521Z,12.00
2023-04-23T02:12:58.946Z,12.00
2023-04-23T02:15:29.458Z,12.00
2023-04-23T02:18:00.100Z,12.10
2023-04-23T02:20:30.640Z,12.10
2023-04-23T02:23:03.797Z,12.10
2023-04-23T02:25:35.118Z,12.10
2023-04-23T02:28:07.256Z,12.10
2023-04-23T02:30:37.851Z,12.10
2023-04-23T02:33:08.301Z,12.10
2023-04-23T02:35:38.793Z,12.10
2023-04-23T02:38:12.685Z,12.10
2023-04-23T02:40:43.947Z,12.10
2023-04-23T02:43:14.428Z,12.10
2023-04-23T02:45:45.073Z,12.00
2023-04-23T02:48:15.532Z,12.10
2023-04-23T02:50:47.082Z,12.00
2023-04-23T02:53:20.134Z,12.00
2023-04-23T02:55:50.595Z,12.00
2023-04-23T02:58:21.003Z,12.10
2023-04-23T03:00:54.450Z,12.10
2023-04-23T03:03:27.016Z,12.00
2023-04-23T03:05:58.095Z,12.00
2023-04-23T03:08:31.471Z,12.00
2023-04-23T03:11:01.925Z,11.90
2023-04-23T03:13:32.604Z,12.00
2023-04-23T03:16:03.325Z,12.00
2023-04-23T03:18:33.813Z,12.00
2023-04-23T03:21:04.228Z,12.00
2023-04-23T03:23:39.131Z,12.00
2023-04-23T03:26:09.780Z,12.00
2023-04-23T03:28:40.284Z,11.90
2023-04-23T03:31:11.165Z,11.90
2023-04-23T03:33:41.680Z,11.90
2023-04-23T03:36:12.204Z,12.00
2023-04-23T03:38:45.397Z,12.00
2023-04-23T03:41:15.857Z,11.90
2023-04-23T03:43:46.559Z,12.00
2023-04-23T03:46:22.384Z,11.90
2023-04-23T03:48:52.797Z,11.90
2023-04-23T03:51:29.736Z,11.90
2023-04-23T03:54:02.785Z,11.90
2023-04-23T03:56:39.224Z,11.90
2023-04-23T03:59:20.414Z,11.80
2023-04-23T04:01:53.025Z,11.90
2023-04-23T04:04:23.845Z,11.90
2023-04-23T04:06:54.454Z,11.90
2023-04-23T04:09:30.935Z,11.80
2023-04-23T04:12:05.520Z,11.80
2023-04-23T04:14:36.383Z,11.90
2023-04-23T04:17:06.859Z,11.80
2023-04-23T04:19:37.223Z,11.80
2023-04-23T04:22:07.846Z,11.80
2023-04-23T04:24:42.523Z,11.70
2023-04-23T04:27:13.242Z,11.70
2023-04-23T04:29:43.832Z,11.70
2023-04-23T04:32:15.442Z,11.70
2023-04-23T04:34:45.836Z,11.70
2023-04-23T04:37:16.192Z,11.70
2023-04-23T04:39:49.385Z,11.70
2023-04-23T04:42:20.560Z,11.70
2023-04-23T04:44:51.551Z,11.60
2023-04-23T04:47:22.430Z,11.60
2023-04-23T04:49:52.790Z,11.60
2023-04-23T04:52:23.289Z,11.50
2023-04-23T04:54:56.276Z,11.60
2023-04-23T04:57:26.699Z,11.60
2023-04-23T04:59:58.087Z,11.60
2023-04-23T05:02:28.657Z,11.60
2023-04-23T05:04:59.152Z,11.50
2023-04-23T05:07:34.233Z,11.50
2023-04-23T05:10:07.733Z,11.50
2023-04-23T05:12:41.668Z,11.50
2023-04-23T05:15:13.985Z,11.50
2023-04-23T05:17:44.613Z,11.50
2023-04-23T05:20:15.600Z,11.60
2023-04-23T05:22:46.538Z,11.50
2023-04-23T05:25:19.595Z,11.50
2023-04-23T05:27:50.038Z,11.60
2023-04-23T05:30:20.967Z,11.60
2023-04-23T05:32:51.442Z,11.60
2023-04-23T05:35:22.135Z,11.60
2023-04-23T05:37:52.558Z,11.60
2023-04-23T05:40:25.796Z,11.60
2023-04-23T05:42:56.235Z,11.60
2023-04-23T05:45:26.761Z,11.60
2023-04-23T05:47:57.276Z,11.60
2023-04-23T05:50:27.947Z,11.60
2023-04-23T05:52:58.336Z,11.70
2023-04-23T05:55:31.890Z,11.70
2023-04-23T05:58:02.742Z,11.70
2023-04-23T06:00:33.619Z,11.70
2023-04-23T06:03:04.105Z,11.70
2023-04-23T06:05:34.769Z,11.70
2023-04-23T06:08:05.168Z,11.80
2023-04-23T06:10:38.325Z,11.80
2023-04-23T06:13:08.995Z,11.80
2023-04-23T06:15:39.426Z,11.80
2023-04-23T06:18:10.658Z,11.80
2023-04-23T06:20:41.351Z,11.90
2023-04-23T06:23:11.784Z,11.90
2023-04-23T06:25:44.755Z,11.90
2023-04-23T06:28:15.253Z,11.90
2023-04-23T06:31:05.989Z,12.00
2023-04-23T06:33:37.532Z,12.00
2023-04-23T06:36:09.845Z,12.10
2023-04-23T06:38:40.352Z,12.10
2023-04-23T06:41:13.973Z,12.10
2023-04-23T06:43:46.329Z,12.20
2023-04-23T06:46:19.710Z,12.20
2023-04-23T06:48:50.132Z,12.20
2023-04-23T06:51:20.667Z,12.30
2023-04-23T06:53:51.328Z,12.30
2023-04-23T06:56:24.763Z,12.40
2023-04-23T06:58:55.186Z,12.40
2023-04-23T07:01:25.814Z,12.40
2023-04-23T07:03:56.583Z,12.50
2023-04-23T07:06:28.154Z,12.40
2023-04-23T07:08:58.535Z,12.50
2023-04-23T07:11:35.316Z,12.60
2023-04-23T07:14:06.760Z,12.60
2023-04-23T07:16:37.400Z,12.60
2023-04-23T07:19:07.794Z,12.70
2023-04-23T07:21:38.193Z,12.80
2023-04-23T07:24:09.657Z,12.80
2023-04-23T07:26:42.766Z,12.80
2023-04-23T07:29:14.405Z,12.90
2023-04-23T07:31:44.938Z,12.90
2023-04-23T07:34:16.222Z,12.90
2023-04-23T07:36:46.682Z,13.00
2023-04-23T07:39:17.026Z,13.00
2023-04-23T07:41:50.128Z,13.10
2023-04-23T07:44:20.597Z,13.10
2023-04-23T07:46:51.241Z,13.20
2023-04-23T07:49:21.592Z,13.20
2023-04-23T07:51:52.060Z,13.30
2023-04-23T07:54:24.001Z,13.40
2023-04-23T07:56:58.683Z,13.40
2023-04-23T07:59:29.132Z,13.50
2023-04-23T08:01:59.828Z,13.50
2023-04-23T08:04:33.226Z,13.60
2023-04-23T08:07:04.038Z,13.60
2023-04-23T08:09:34.417Z,13.60
2023-04-23T08:12:08.161Z,13.60
2023-04-23T08:14:38.603Z,13.70
2023-04-23T08:17:14.792Z,13.80
2023-04-23T08:19:45.210Z,13.80
2023-04-23T08:22:16.613Z,13.90
2023-04-23T08:24:47.890Z,13.90
2023-04-23T08:27:21.172Z,14.00
2023-04-23T08:29:52.027Z,14.00
2023-04-23T08:32:22.617Z,14.10
2023-04-23T08:34:53.148Z,14.20
2023-04-23T08:37:30.770Z,14.20
2023-04-23T08:40:02.037Z,14.30
2023-04-23T08:42:41.906Z,14.30
2023-04-23T08:45:13.682Z,14.40
2023-04-23T08:47:45.880Z,14.40
2023-04-23T08:50:18.026Z,14.40
2023-04-23T08:52:52.823Z,14.40
2023-04-23T08:55:25.045Z,14.40
2023-04-23T08:57:58.527Z,14.40
2023-04-23T09:00:29.027Z,14.40
2023-04-23T09:03:00.285Z,14.50
2023-04-23T09:05:31.326Z,14.50
2023-04-23T09:08:02.640Z,14.50
2023-04-23T09:10:32.992Z,14.60
2023-04-23T09:13:06.080Z,14.60
2023-04-23T09:15:38.972Z,14.60
2023-04-23T09:18:10.826Z,14.70
2023-04-23T09:20:41.980Z,14.80
2023-04-23T09:23:12.457Z,14.80
2023-04-23T09:25:42.999Z,14.80
2023-04-23T09:28:16.110Z,14.90
2023-04-23T09:30:47.421Z,15.00
2023-04-23T09:33:20.296Z,15.10
2023-04-23T09:35:52.399Z,15.10
2023-04-23T09:38:23.433Z,15.10
2023-04-23T09:40:54.056Z,15.20
2023-04-23T09:43:27.382Z,15.20
2023-04-23T09:45:58.068Z,15.20
2023-04-23T09:48:43.318Z,15.30
2023-04-23T09:51:17.123Z,15.40
2023-04-23T09:53:47.702Z,15.50
2023-04-23T09:56:18.143Z,15.50
2023-04-23T09:58:51.775Z,15.50
2023-04-23T10:01:22.230Z,15.50
2023-04-23T10:03:57.249Z,15.50
2023-04-23T10:06:44.422Z,15.60
2023-04-23T10:09:24.985Z,15.70
2023-04-23T10:11:56.237Z,15.70
2023-04-23T10:14:30.243Z,15.70
2023-04-23T10:17:02.911Z,15.80
2023-04-23T10:19:34.989Z,15.90
2023-04-23T10:22:18.605Z,15.90
2023-04-23T10:24:52.048Z,15.90
2023-04-23T10:27:40.185Z,15.90
2023-04-23T10:30:18.019Z,15.80
2023-04-23T10:32:50.866Z,15.80
2023-04-23T10:35:21.524Z,15.90
2023-04-23T10:37:52.345Z,15.90
2023-04-23T10:40:27.229Z,15.90
2023-04-23T10:42:57.896Z,15.90
2023-04-23T10:45:34.897Z,16.00
2023-04-23T10:48:05.796Z,16.00
2023-04-23T10:50:50.941Z,16.00
2023-04-23T10:53:34.383Z,16.00
2023-04-23T10:56:12.452Z,16.00
2023-04-23T10:58:52.700Z,16.10
2023-04-23T11:01:27.931Z,16.10
2023-04-23T11:03:59.530Z,16.10
2023-04-23T11:07:02.557Z,16.10
2023-04-23T11:09:41.647Z,16.10
2023-04-23T11:12:15.157Z,16.10
2023-04-23T11:14:49.967Z,16.10
2023-04-23T11:17:27.521Z,16.20
2023-04-23T11:20:14.260Z,16.30
2023-04-23T11:22:47.062Z,16.30
2023-04-23T11:25:22.296Z,16.40
2023-04-23T11:27:54.305Z,16.40
2023-04-23T11:30:25.948Z,16.50
2023-04-23T11:33:01.704Z,16.60
2023-04-23T11:35:39.901Z,16.70
2023-04-23T11:38:12.090Z,16.60
2023-04-23T11:40:43.447Z,16.60
2023-04-23T11:43:18.713Z,16.50
2023-04-23T11:45:49.482Z,16.60
2023-04-23T11:48:22.746Z,16.60
2023-04-23T11:50:53.215Z,16.60
2023-04-23T11:53:25.992Z,16.60
2023-04-23T11:55:57.814Z,16.70
2023-04-23T11:58:28.229Z,16.80
2023-04-23T12:01:02.706Z,16.90
2023-04-23T12:03:36.006Z,16.80
2023-04-23T12:06:06.892Z,16.80
2023-04-23T12:08:40.677Z,16.70
2023-04-23T12:11:11.210Z,16.60
2023-04-23T12:13:43.710Z,16.60
2023-04-23T12:16:14.115Z,16.60
2023-04-23T12:18:47.206Z,16.50
2023-04-23T12:21:19.060Z,16.40
2023-04-23T12:23:54.897Z,16.30
2023-04-23T12:26:25.924Z,16.10
2023-04-23T12:28:59.349Z,16.00
2023-04-23T12:31:31.719Z,15.90
2023-04-23T12:34:06.663Z,15.80
2023-04-23T12:36:38.842Z,15.70
2023-04-23T12:39:30.179Z,15.60
2023-04-23T12:42:05.294Z,15.60
2023-04-23T12:44:37.284Z,15.60
2023-04-23T12:47:09.569Z,15.50
2023-04-23T12:49:44.292Z,15.50
2023-04-23T12:52:15.152Z,15.40
2023-04-23T12:54:45.618Z,15.50
2023-04-23T12:57:17.452Z,15.50
2023-04-23T12:59:49.677Z,15.40
2023-04-23T13:02:20.407Z,15.40
2023-04-23T13:04:54.790Z,15.30
2023-04-23T13:07:25.180Z,15.40
2023-04-23T13:09:55.609Z,15.40
2023-04-23T13:12:26.118Z,15.40
2023-04-23T13:14:59.541Z,15.40
2023-04-23T13:17:30.205Z,15.30
2023-04-23T13:20:05.175Z,15.40
2023-04-23T13:22:35.670Z,15.40
2023-04-23T13:25:06.057Z,15.30
2023-04-23T13:27:36.492Z,15.30
2023-04-23T13:30:07.698Z,15.30
2023-04-23T13:32:38.149Z,15.30
2023-04-23T13:35:13.755Z,15.20
2023-04-23T13:37:44.108Z,15.30
2023-04-23T13:40:16.039Z,15.20
2023-04-23T13:42:48.240Z,15.30
2023-04-23T13:45:19.121Z,15.20
2023-04-23T13:47:50.375Z,15.30
2023-04-23T13:50:23.874Z,15.30
2023-04-23T13:52:54.501Z,15.20
2023-04-23T13:55:24.932Z,15.20
2023-04-23T13:57:58.085Z,15.10
2023-04-23T14:00:30.201Z,15.10
2023-04-23T14:03:00.787Z,15.10
2023-04-23T14:05:34.396Z,15.10
2023-04-23T14:08:04.963Z,15.00
2023-04-23T14:10:35.889Z,15.00
2023-04-23T14:13:07.066Z,15.00
2023-04-23T14:15:38.535Z,15.00
2023-04-23T14:18:09.462Z,14.90
2023-04-23T14:20:42.609Z,14.90
2023-04-23T14:23:47.886Z,14.80
2023-04-23T14:29:14.198Z,14.90
2023-04-23T14:31:44.595Z,14.80
2023-04-23T14:34:14.978Z,14.90
2023-04-23T14:36:49.544Z,14.90
2023-04-23T14:39:20.065Z,15.00
2023-04-23T14:41:50.609Z,15.20
2023-04-23T14:44:23.568Z,15.20
2023-04-23T14:46:54.055Z,15.10
2023-04-23T14:49:25.416Z,15.20
2023-04-23T14:51:58.784Z,15.20
2023-04-23T14:54:29.304Z,15.20
2023-04-23T14:56:59.784Z,15.00
2023-04-23T14:59:30.181Z,15.10
2023-04-23T15:02:00.760Z,15.10
2023-04-23T15:04:31.596Z,15.20
2023-04-23T15:07:04.629Z,15.10
2023-04-23T15:09:35.038Z,15.20
2023-04-23T15:12:09.520Z,15.30
2023-04-23T15:14:41.078Z,15.40
2023-04-23T15:17:11.721Z,15.30
2023-04-23T15:19:42.244Z,15.30
2023-04-23T15:22:15.479Z,15.40
2023-04-23T15:24:45.979Z,15.40
2023-04-23T15:27:16.708Z,15.20
2023-04-23T15:29:47.137Z,15.30
2023-04-23T15:32:17.558Z,15.30
2023-04-23T15:34:48.032Z,15.30
2023-04-23T15:37:23.872Z,15.20
2023-04-23T15:39:54.499Z,15.30
2023-04-23T15:42:25.280Z,15.30
2023-04-23T15:44:57.609Z,15.30
2023-04-23T15:47:28.041Z,15.30
2023-04-23T15:49:58.473Z,15.20
2023-04-23T15:52:31.457Z,15.20
2023-04-23T15:55:02.148Z,15.20
2023-04-23T15:57:32.681Z,15.10
2023-04-23T16:00:03.099Z,15.10
2023-04-23T16:02:42.288Z,15.10
2023-04-23T16:05:13.899Z,15.10
2023-04-23T16:07:47.457Z,15.10
2023-04-23T16:10:17.872Z,15.10
2023-04-23T16:12:49.067Z,15.10
2023-04-23T16:15:19.489Z,15.10
2023-04-23T16:17:50.431Z,15.20
2023-04-23T16:20:20.888Z,15.10
2023-04-23T16:22:54.041Z,15.00
2023-04-23T16:25:24.550Z,15.10
2023-04-23T16:27:55.228Z,15.10
2023-04-23T16:30:25.944Z,15.10
2023-04-23T16:32:56.345Z,15.10
2023-04-23T16:35:26.750Z,15.10
2023-04-23T16:38:00.056Z,15.10
2023-04-23T16:40:30.922Z,15.00
2023-04-23T16:43:01.495Z,15.00
2023-04-23T16:45:38.347Z,15.10
2023-04-23T16:48:13.392Z,15.10
2023-04-23T16:50:44.678Z,15.10
2023-04-23T16:53:17.963Z,15.10
2023-04-23T16:55:48.818Z,15.00
2023-04-23T16:58:19.385Z,15.00
2023-04-23T17:00:49.901Z,14.90
2023-04-23T17:03:20.396Z,14.90
2023-04-23T17:05:57.922Z,14.80
2023-04-23T17:08:31.204Z,14.70
2023-04-23T17:11:01.614Z,14.80
2023-04-23T17:13:32.022Z,14.80
2023-04-23T17:16:02.606Z,14.90
2023-04-23T17:18:33.258Z,15.30
2023-04-23T17:21:03.867Z,15.10
2023-04-23T17:23:37.146Z,15.00
2023-04-23T17:26:07.594Z,14.90
2023-04-23T17:28:40.846Z,14.70
2023-04-23T17:31:11.759Z,14.40
2023-04-23T17:33:43.731Z,14.20
2023-04-23T17:36:14.332Z,14.10
2023-04-23T17:38:47.364Z,14.10
2023-04-23T17:41:17.918Z,14.00
2023-04-23T17:43:49.569Z,13.90
2023-04-23T17:46:20.150Z,13.80
2023-04-23T17:48:50.666Z,13.70
2023-04-23T17:51:21.837Z,13.70
2023-04-23T17:53:54.882Z,13.70
2023-04-23T17:56:25.269Z,13.50
2023-04-23T17:58:55.756Z,13.60
2023-04-23T18:01:26.242Z,13.50
2023-04-23T18:03:56.926Z,13.50
2023-04-23T18:06:27.542Z,13.50
2023-04-23T18:09:00.926Z,13.40
2023-04-23T18:11:31.513Z,13.40
2023-04-23T18:14:02.202Z,13.30
2023-04-23T18:16:32.719Z,13.20
2023-04-23T18:19:03.406Z,13.00
2023-04-23T18:21:34.311Z,12.90
2023-04-23T18:24:07.768Z,12.80
2023-04-23T18:26:38.186Z,12.70
2023-04-23T18:29:08.636Z,12.60
2023-04-23T18:31:39.300Z,12.60
2023-04-23T18:34:13.460Z,12.50
2023-04-23T18:36:46.142Z,12.50
2023-04-23T18:39:19.295Z,12.40
2023-04-23T18:41:50.669Z,12.30
2023-04-23T18:44:21.432Z,12.40
2023-04-23T18:46:51.992Z,12.30
2023-04-23T18:49:46.782Z,12.30
2023-04-23T18:52:17.312Z,12.20
2023-04-23T18:54:50.330Z,12.00
2023-04-23T18:57:21.367Z,12.00
2023-04-23T18:59:51.782Z,12.00
2023-04-23T19:02:34.643Z,12.00
2023-04-23T19:05:05.974Z,12.00
2023-04-23T19:07:37.468Z,11.90
2023-04-23T19:10:12.274Z,11.80
2023-04-23T19:12:42.706Z,11.90
2023-04-23T19:15:15.304Z,11.90
2023-04-23T19:17:45.936Z,11.80
2023-04-23T19:20:16.938Z,11.80
2023-04-23T19:22:47.464Z,11.80
2023-04-23T19:25:20.471Z,11.80
2023-04-23T19:27:51.182Z,11.80
2023-04-23T19:30:21.625Z,11.90
2023-04-23T19:32:52.096Z,11.90
2023-04-23T19:35:22.811Z,11.90
2023-04-23T19:37:53.285Z,11.90
2023-04-23T19:40:26.310Z,11.90
2023-04-23T19:42:56.887Z,11.80
2023-04-23T19:45:27.293Z,11.80
2023-04-23T19:47:57.777Z,11.80
2023-04-23T19:50:28.649Z,11.80
2023-04-23T19:52:59.364Z,11.80
2023-04-23T19:55:32.903Z,11.80
2023-04-23T19:58:06.669Z,11.80
2023-04-23T20:00:41.462Z,11.80
2023-04-23T20:03:13.333Z,11.80
2023-04-23T20:05:46.339Z,11.90
2023-04-23T20:08:26.317Z,11.90
2023-04-23T20:10:59.816Z,11.90
2023-04-23T20:13:30.425Z,11.80
2023-04-23T20:16:00.759Z,11.90
2023-04-23T20:18:35.385Z,11.80
2023-04-23T20:21:06.538Z,11.80
2023-04-23T20:23:37.039Z,11.90
2023-04-23T20:26:10.699Z,11.90
2023-04-23T20:28:41.365Z,12.00
2023-04-23T20:31:11.834Z,11.90
2023-04-23T20:33:42.223Z,11.90
2023-04-23T20:36:13.237Z,11.80
2023-04-23T20:38:43.633Z,11.90
2023-04-23T20:41:17.031Z,11.90
2023-04-23T20:43:47.465Z,11.80
2023-04-23T20:46:18.658Z,12.00
2023-04-23T20:48:53.205Z,11.90
2023-04-23T20:51:23.979Z,11.90
2023-04-23T20:53:54.882Z,11.90
2023-04-23T20:56:27.941Z,11.90
2023-04-23T20:58:58.555Z,11.90
2023-04-23T21:01:30.383Z,11.90
2023-04-23T21:04:03.163Z,12.00
2023-04-23T21:06:34.330Z,12.00
2023-04-23T21:09:04.897Z,11.90
2023-04-23T21:11:37.997Z,11.90
2023-04-23T21:14:09.239Z,11.90
2023-04-23T21:16:39.955Z,11.90
2023-04-23T21:19:11.075Z,11.90
2023-04-23T21:21:41.468Z,11.80
2023-04-23T21:24:11.967Z,11.80
2023-04-23T21:26:45.780Z,11.80
2023-04-23T21:29:16.263Z,11.70
2023-04-23T21:31:50.599Z,11.70
2023-04-23T21:34:21.728Z,11.60
2023-04-23T21:36:52.361Z,11.70
2023-04-23T21:39:22.769Z,11.70
2023-04-23T21:41:55.870Z,11.60
2023-04-23T21:44:28.750Z,11.60
2023-04-23T21:46:59.149Z,11.60
2023-04-23T21:49:29.592Z,11.70
2023-04-23T21:52:00.786Z,11.70
2023-04-23T21:54:31.378Z,11.60
2023-04-23T21:57:04.629Z,11.70
2023-04-23T21:59:35.132Z,11.70
2023-04-23T22:02:05.668Z,11.60
2023-04-23T22:04:36.236Z,11.60
2023-04-23T22:07:07.720Z,11.60
2023-04-23T22:09:38.153Z,11.60
2023-04-23T22:12:12.111Z,11.60
2023-04-23T22:14:42.503Z,11.60
2023-04-23T22:17:12.971Z,11.60
2023-04-23T22:19:43.769Z,11.60
2023-04-23T22:22:14.283Z,11.50
2023-04-23T22:24:44.818Z,11.60
2023-04-23T22:27:17.943Z,11.50
2023-04-23T22:29:48.436Z,11.50
2023-04-23T22:32:18.928Z,11.40
2023-04-23T22:34:49.530Z,11.40
2023-04-23T22:37:19.964Z,11.40
2023-04-23T22:39:50.578Z,11.40
2023-04-23T22:42:23.594Z,11.40
2023-04-23T22:44:54.118Z,11.50
2023-04-23T22:47:24.673Z,11.40
2023-04-23T22:49:55.268Z,11.40
2023-04-23T22:52:25.861Z,11.40
2023-04-23T22:54:57.118Z,11.40
2023-04-23T22:57:30.882Z,11.40
2023-04-23T23:00:01.792Z,11.40
2023-04-23T23:02:32.357Z,11.40
2023-04-23T23:05:03.098Z,11.40
2023-04-23T23:07:33.604Z,11.40
2023-04-23T23:10:04.050Z,11.40
2023-04-23T23:12:37.350Z,11.30
2023-04-23T23:15:09.062Z,11.30
2023-04-23T23:17:39.594Z,11.30
2023-04-23T23:20:12.309Z,11.40
2023-04-23T23:22:42.890Z,11.30
2023-04-23T23:25:13.563Z,11.30
2023-04-23T23:27:46.583Z,11.30
2023-04-23T23:30:17.207Z,11.30
2023-04-23T23:32:47.714Z,11.40
2023-04-23T23:35:18.226Z,11.40
2023-04-23T23:37:48.710Z,11.40
2023-04-23T23:40:19.347Z,11.40
2023-04-23T23:42:52.363Z,11.30
2023-04-23T23:45:22.869Z,11.30
2023-04-23T23:47:53.472Z,11.30
2023-04-23T23:50:24.334Z,11.30
2023-04-23T23:52:54.986Z,11.20
2023-04-23T23:55:25.509Z,11.30
2023-04-23T23:57:58.695Z,11.30
